createdAt,value
2022-12-11T00:02:21.610Z,35.73
2022-12-11T00:04:48.254Z,35.57
2022-12-11T00:07:14.890Z,35.43
2022-12-11T00:09:41.504Z,35.61
2022-12-11T00:12:08.133Z,35.93
2022-12-11T00:14:35.395Z,35.70
2022-12-11T00:17:02.106Z,35.44
2022-12-11T00:19:28.797Z,35.49
2022-12-11T00:21:55.403Z,35.56
2022-12-11T00:24:22.085Z,35.41
2022-12-11T00:26:48.785Z,35.55
2022-12-11T00:29:15.379Z,35.39
2022-12-11T00:31:42.415Z,35.18
2022-12-11T00:34:09.329Z,35.42
2022-12-11T00:36:35.954Z,35.46
2022-12-11T00:39:03.723Z,35.13
2022-12-11T00:41:30.666Z,35.49
2022-12-11T00:44:05.807Z,35.51
2022-12-11T00:46:32.514Z,35.65
2022-12-11T00:48:59.134Z,35.19
2022-12-11T00:51:26.288Z,35.64
2022-12-11T00:53:59.267Z,35.32
2022-12-11T00:56:26.010Z,35.54
2022-12-11T00:58:52.626Z,35.36
2022-12-11T01:01:21.207Z,35.48
2022-12-11T01:03:48.404Z,35.38
2022-12-11T01:06:19.523Z,35.52
2022-12-11T01:08:47.143Z,35.74
2022-12-11T01:11:15.945Z,35.55
2022-12-11T01:13:43.012Z,35.57
2022-12-11T01:16:10.823Z,36.12
2022-12-11T01:18:37.760Z,35.84
2022-12-11T01:21:08.996Z,36.31
2022-12-11T01:23:35.629Z,35.93
2022-12-11T01:26:11.784Z,36.00
2022-12-11T01:28:38.831Z,36.22
2022-12-11T01:31:12.634Z,36.35
2022-12-11T01:33:39.774Z,36.35
2022-12-11T01:36:09.416Z,36.48
2022-12-11T01:38:36.462Z,36.52
2022-12-11T01:41:03.282Z,36.44
2022-12-11T01:43:30.122Z,36.80
2022-12-11T01:45:56.800Z,36.49
2022-12-11T01:48:28.873Z,36.71
2022-12-11T01:50:57.651Z,37.02
2022-12-11T01:53:27.661Z,37.22
2022-12-11T01:55:55.394Z,37.17
2022-12-11T01:58:23.705Z,37.28
2022-12-11T02:00:51.757Z,37.13
2022-12-11T02:03:18.590Z,37.54
2022-12-11T02:05:45.319Z,37.57
2022-12-11T02:08:12.463Z,37.38
2022-12-11T02:10:58.023Z,37.30
2022-12-11T02:13:33.206Z,37.68
2022-12-11T02:16:07.854Z,37.47
2022-12-11T02:18:48.229Z,37.46
2022-12-11T02:21:24.003Z,37.42
2022-12-11T02:24:00.455Z,37.51
2022-12-11T02:26:46.551Z,37.64
2022-12-11T02:29:17.440Z,37.32
2022-12-11T02:32:07.469Z,37.24
2022-12-11T02:34:46.951Z,37.62
2022-12-11T02:37:16.797Z,37.16
2022-12-11T02:39:49.728Z,37.69
2022-12-11T02:42:16.745Z,37.62
2022-12-11T02:44:44.280Z,37.61
2022-12-11T02:47:12.675Z,37.36
2022-12-11T02:49:49.910Z,37.68
2022-12-11T02:52:19.488Z,37.50
2022-12-11T02:54:47.200Z,37.38
2022-12-11T02:57:19.339Z,37.90
2022-12-11T02:59:46.642Z,37.53
2022-12-11T03:02:15.303Z,37.61
2022-12-11T03:04:42.427Z,37.57
2022-12-11T03:07:18.194Z,38.07
2022-12-11T03:09:48.597Z,37.88
2022-12-11T03:12:17.635Z,38.05
2022-12-11T03:14:44.504Z,37.71
2022-12-11T03:17:22.320Z,38.10
2022-12-11T03:20:21.655Z,37.85
2022-12-11T03:22:52.378Z,38.27
2022-12-11T03:25:22.352Z,38.20
2022-12-11T03:28:01.535Z,38.28
2022-12-11T03:30:29.049Z,38.21
2022-12-11T03:33:03.017Z,38.45
2022-12-11T03:35:39.209Z,38.92
2022-12-11T03:38:08.369Z,38.70
2022-12-11T03:40:36.352Z,38.59
2022-12-11T03:43:03.711Z,38.59
2022-12-11T03:45:30.615Z,38.89
2022-12-11T03:47:58.540Z,38.74
2022-12-11T03:50:26.694Z,38.77
2022-12-11T03:52:54.102Z,38.79
2022-12-11T03:55:22.328Z,38.92
2022-12-11T03:57:49.201Z,38.77
2022-12-11T04:00:18.133Z,38.69
2022-12-11T04:02:45.362Z,38.80
2022-12-11T04:05:12.402Z,38.67
2022-12-11T04:07:39.305Z,38.67
2022-12-11T04:10:07.160Z,38.63
2022-12-11T04:12:33.760Z,38.88
2022-12-11T04:15:03.166Z,38.80
2022-12-11T04:17:48.880Z,38.98
2022-12-11T04:20:34.077Z,38.80
2022-12-11T04:23:19.080Z,38.98
2022-12-11T04:25:45.721Z,38.97
2022-12-11T04:28:12.413Z,38.64
2022-12-11T04:30:39.151Z,38.87
2022-12-11T04:33:06.040Z,38.66
2022-12-11T04:35:32.814Z,39.07
2022-12-11T04:37:59.498Z,39.02
2022-12-11T04:40:26.164Z,39.01
2022-12-11T04:42:52.809Z,38.88
2022-12-11T04:45:19.545Z,38.89
2022-12-11T04:47:46.261Z,38.86
2022-12-11T04:50:14.493Z,39.05
2022-12-11T04:52:41.377Z,39.20
2022-12-11T04:55:09.357Z,39.18
2022-12-11T04:57:36.363Z,38.99
2022-12-11T05:00:04.972Z,39.20
2022-12-11T05:02:34.177Z,39.08
2022-12-11T05:05:00.797Z,39.11
2022-12-11T05:07:27.405Z,38.94
2022-12-11T05:09:54.082Z,38.98
2022-12-11T05:12:20.714Z,39.38
2022-12-11T05:14:47.427Z,38.91
2022-12-11T05:17:14.013Z,39.09
2022-12-11T05:19:50.721Z,39.25
2022-12-11T05:22:18.120Z,39.16
2022-12-11T05:24:45.576Z,38.94
2022-12-11T05:27:12.245Z,38.84
2022-12-11T05:29:44.528Z,38.98
2022-12-11T05:32:11.227Z,39.15
2022-12-11T05:34:37.909Z,38.96
2022-12-11T05:37:04.553Z,39.33
2022-12-11T05:39:31.200Z,39.15
2022-12-11T05:41:57.956Z,39.15
2022-12-11T05:44:25.169Z,39.23
2022-12-11T05:46:51.937Z,39.43
2022-12-11T05:49:20.188Z,39.21
2022-12-11T05:51:46.938Z,39.11
2022-12-11T05:54:13.630Z,38.93
2022-12-11T05:56:40.394Z,39.09
2022-12-11T05:59:07.413Z,39.25
2022-12-11T06:01:35.660Z,39.01
2022-12-11T06:04:03.178Z,39.08
2022-12-11T06:06:29.781Z,39.16
2022-12-11T06:08:57.416Z,39.02
2022-12-11T06:11:24.789Z,39.24
2022-12-11T06:13:52.235Z,39.26
2022-12-11T06:16:19.117Z,39.61
2022-12-11T06:18:46.067Z,39.23
2022-12-11T06:21:17.285Z,39.38
2022-12-11T06:23:44.557Z,39.22
2022-12-11T06:26:11.965Z,39.24
2022-12-11T06:28:38.711Z,39.28
2022-12-11T06:31:05.460Z,39.66
2022-12-11T06:33:32.691Z,39.58
2022-12-11T06:36:06.805Z,39.29
2022-12-11T06:38:33.432Z,39.54
2022-12-11T06:41:01.254Z,39.54
2022-12-11T06:43:27.986Z,39.28
2022-12-11T06:45:59.173Z,39.48
2022-12-11T06:48:28.814Z,39.41
2022-12-11T06:50:55.459Z,39.39
2022-12-11T06:53:22.194Z,39.71
2022-12-11T06:55:48.851Z,39.67
2022-12-11T06:58:15.538Z,39.87
2022-12-11T07:00:42.195Z,39.97
2022-12-11T07:03:10.129Z,40.11
2022-12-11T07:05:36.707Z,40.13
2022-12-11T07:08:03.377Z,40.39
2022-12-11T07:10:30.178Z,40.48
2022-12-11T07:12:56.889Z,40.73
2022-12-11T07:15:23.537Z,41.09
2022-12-11T07:17:50.128Z,40.88
2022-12-11T07:20:17.527Z,41.12
2022-12-11T07:22:46.582Z,41.31
2022-12-11T07:25:13.734Z,41.17
2022-12-11T07:27:41.731Z,41.49
2022-12-11T07:30:08.966Z,41.09
2022-12-11T07:32:35.625Z,41.53
2022-12-11T07:35:02.394Z,41.05
2022-12-11T07:37:28.982Z,40.96
2022-12-11T07:39:55.587Z,41.24
2022-12-11T07:42:22.277Z,40.96
2022-12-11T07:44:49.000Z,41.03
2022-12-11T07:47:15.725Z,40.67
2022-12-11T07:49:51.574Z,40.89
2022-12-11T07:52:18.150Z,40.73
2022-12-11T07:54:44.771Z,40.52
2022-12-11T07:57:14.184Z,40.43
2022-12-11T07:59:44.542Z,40.56
2022-12-11T08:02:12.137Z,40.54
2022-12-11T08:04:39.113Z,40.14
2022-12-11T08:07:05.774Z,40.49
2022-12-11T08:09:32.445Z,40.36
2022-12-11T08:11:59.171Z,40.16
2022-12-11T08:14:25.822Z,40.40
2022-12-11T08:16:52.677Z,40.36
2022-12-11T08:19:19.382Z,39.89
2022-12-11T08:21:46.198Z,40.15
2022-12-11T08:24:12.906Z,40.02
2022-12-11T08:26:39.572Z,40.36
2022-12-11T08:29:06.377Z,40.01
2022-12-11T08:31:33.357Z,40.37
2022-12-11T08:34:00.032Z,40.10
2022-12-11T08:36:26.737Z,40.17
2022-12-11T08:38:54.525Z,39.78
2022-12-11T08:41:25.569Z,39.78
2022-12-11T08:43:55.618Z,39.91
2022-12-11T08:46:26.306Z,39.75
2022-12-11T08:48:53.326Z,39.89
2022-12-11T08:51:22.877Z,39.70
2022-12-11T08:53:50.481Z,39.42
2022-12-11T08:56:18.514Z,39.48
2022-12-11T08:58:45.929Z,39.21
2022-12-11T09:01:14.396Z,39.21
2022-12-11T09:03:41.552Z,39.13
2022-12-11T09:06:09.912Z,39.17
2022-12-11T09:08:36.924Z,39.13
2022-12-11T09:11:13.433Z,38.91
2022-12-11T09:13:40.585Z,38.61
2022-12-11T09:16:08.266Z,38.63
2022-12-11T09:18:35.089Z,38.71
2022-12-11T09:21:02.709Z,38.26
2022-12-11T09:23:29.642Z,38.62
2022-12-11T09:25:56.715Z,38.20
2022-12-11T09:28:23.806Z,38.66
2022-12-11T09:30:50.509Z,38.41
2022-12-11T09:33:17.696Z,38.41
2022-12-11T09:35:44.636Z,38.54
2022-12-11T09:38:11.377Z,38.39
2022-12-11T09:40:43.115Z,38.54
2022-12-11T09:43:15.765Z,38.63
2022-12-11T09:45:42.481Z,38.62
2022-12-11T09:48:10.793Z,38.27
2022-12-11T09:50:37.550Z,38.63
2022-12-11T09:53:34.404Z,37.83
2022-12-11T09:56:01.253Z,33.77
2022-12-11T09:58:34.268Z,34.49
2022-12-11T10:01:37.819Z,35.09
2022-12-11T10:04:39.784Z,35.58
2022-12-11T10:07:20.257Z,35.79
2022-12-11T10:10:03.930Z,36.03
2022-12-11T10:12:49.530Z,35.89
2022-12-11T10:15:19.051Z,36.07
2022-12-11T10:17:46.011Z,36.29
2022-12-11T10:20:37.540Z,36.23
2022-12-11T10:23:07.006Z,36.19
2022-12-11T10:25:37.952Z,36.35
2022-12-11T10:28:13.187Z,36.54
2022-12-11T10:30:42.239Z,36.73
2022-12-11T10:33:11.947Z,36.72
2022-12-11T10:35:42.471Z,36.80
2022-12-11T10:38:14.346Z,36.57
2022-12-11T10:40:43.236Z,36.69
2022-12-11T10:43:10.872Z,36.43
2022-12-11T10:45:51.789Z,36.76
2022-12-11T10:48:18.720Z,36.73
2022-12-11T10:50:55.199Z,36.50
2022-12-11T10:53:22.245Z,36.56
2022-12-11T10:55:49.727Z,36.72
2022-12-11T10:58:19.136Z,36.70
2022-12-11T11:00:46.474Z,36.56
2022-12-11T11:03:24.053Z,36.41
2022-12-11T11:05:50.950Z,36.67
2022-12-11T11:08:27.747Z,36.59
2022-12-11T11:11:01.313Z,36.43
2022-12-11T11:13:30.086Z,36.64
2022-12-11T11:16:05.286Z,36.15
2022-12-11T11:18:32.282Z,36.39
2022-12-11T11:20:59.254Z,36.58
2022-12-11T11:23:26.282Z,36.18
2022-12-11T11:25:52.934Z,36.23
2022-12-11T11:28:21.961Z,36.24
2022-12-11T11:31:14.835Z,36.35
2022-12-11T11:33:50.597Z,36.11
2022-12-11T11:36:22.272Z,36.08
2022-12-11T11:39:07.483Z,36.20
2022-12-11T11:41:34.135Z,36.37
2022-12-11T11:44:04.310Z,36.00
2022-12-11T11:46:35.317Z,36.06
2022-12-11T11:49:08.167Z,36.03
2022-12-11T11:51:39.008Z,36.06
2022-12-11T11:54:21.328Z,36.32
2022-12-11T11:56:50.385Z,36.25
2022-12-11T11:59:22.093Z,36.05
2022-12-11T12:01:48.889Z,36.12
2022-12-11T12:04:15.937Z,36.20
2022-12-11T12:07:00.885Z,35.72
2022-12-11T12:09:48.677Z,35.97
2022-12-11T12:12:24.744Z,36.07
2022-12-11T12:15:15.468Z,35.63
2022-12-11T12:17:45.698Z,35.62
2022-12-11T12:20:13.847Z,35.64
2022-12-11T12:22:49.108Z,35.39
2022-12-11T12:25:22.395Z,35.35
2022-12-11T12:27:57.971Z,35.25
2022-12-11T12:30:24.990Z,35.28
2022-12-11T12:33:10.443Z,35.19
2022-12-11T12:36:06.774Z,35.33
2022-12-11T12:38:54.337Z,34.94
2022-12-11T12:41:23.217Z,35.23
2022-12-11T12:43:59.160Z,35.21
2022-12-11T12:46:34.921Z,34.89
2022-12-11T12:49:02.528Z,35.02
2022-12-11T12:51:30.325Z,35.02
2022-12-11T12:54:04.687Z,35.03
2022-12-11T12:56:36.869Z,34.84
2022-12-11T12:59:03.605Z,34.56
2022-12-11T13:01:31.510Z,34.91
2022-12-11T13:03:59.879Z,34.83
2022-12-11T13:06:31.889Z,34.86
2022-12-11T13:08:58.842Z,34.72
2022-12-11T13:11:32.893Z,34.61
2022-12-11T13:14:04.329Z,34.79
2022-12-11T13:16:41.251Z,34.68
2022-12-11T13:19:27.035Z,35.07
2022-12-11T13:21:56.841Z,35.12
2022-12-11T13:24:23.574Z,34.98
2022-12-11T13:26:50.839Z,34.96
2022-12-11T13:29:49.285Z,35.27
2022-12-11T13:32:19.125Z,35.11
2022-12-11T13:34:51.717Z,35.55
2022-12-11T13:37:44.277Z,35.53
2022-12-11T13:40:19.330Z,35.68
2022-12-11T13:43:00.859Z,35.28
2022-12-11T13:45:29.854Z,35.56
2022-12-11T13:47:57.509Z,35.33
2022-12-11T13:50:31.995Z,35.74
2022-12-11T13:53:00.030Z,35.75
2022-12-11T13:55:31.112Z,35.66
2022-12-11T13:57:58.284Z,35.79
2022-12-11T14:00:26.804Z,35.43
2022-12-11T14:02:55.590Z,35.48
2022-12-11T14:05:22.625Z,35.90
2022-12-11T14:07:51.934Z,35.75
2022-12-11T14:10:24.269Z,35.55
2022-12-11T14:12:53.880Z,35.71
2022-12-11T14:15:21.287Z,35.44
2022-12-11T14:17:51.666Z,35.80
2022-12-11T14:20:29.236Z,35.50
2022-12-11T14:23:29.016Z,35.79
2022-12-11T14:26:05.130Z,35.46
2022-12-11T14:28:40.823Z,35.82
2022-12-11T14:31:29.586Z,35.30
2022-12-11T14:34:04.349Z,35.26
2022-12-11T14:36:33.415Z,35.69
2022-12-11T14:39:07.081Z,35.32
2022-12-11T14:42:04.997Z,35.12
2022-12-11T14:44:33.963Z,35.07
2022-12-11T14:47:10.839Z,35.34
2022-12-11T14:50:13.830Z,35.32
2022-12-11T14:52:52.081Z,34.86
2022-12-11T14:55:28.912Z,35.10
2022-12-11T14:58:02.258Z,35.17
2022-12-11T15:00:32.167Z,35.01
2022-12-11T15:03:01.421Z,35.00
2022-12-11T15:05:28.794Z,34.96
2022-12-11T15:07:59.672Z,34.93
2022-12-11T15:10:37.691Z,34.88
2022-12-11T15:13:06.112Z,35.08
2022-12-11T15:15:37.877Z,35.04
2022-12-11T15:18:08.327Z,35.14
2022-12-11T15:20:35.019Z,35.56
2022-12-11T15:23:02.397Z,35.78
2022-12-11T15:25:29.963Z,35.73
2022-12-11T15:27:58.146Z,36.35
2022-12-11T15:30:34.723Z,36.80
2022-12-11T15:33:04.337Z,36.95
2022-12-11T15:35:31.164Z,36.38
2022-12-11T15:37:58.786Z,36.00
2022-12-11T15:40:25.839Z,36.23
2022-12-11T15:42:52.825Z,35.74
2022-12-11T15:45:23.814Z,35.79
2022-12-11T15:47:50.556Z,35.83
2022-12-11T15:50:24.874Z,35.73
2022-12-11T15:52:52.259Z,35.82
2022-12-11T15:55:19.557Z,35.97
2022-12-11T15:57:47.764Z,35.89
2022-12-11T16:00:15.219Z,35.57
2022-12-11T16:02:42.039Z,35.81
2022-12-11T16:05:09.248Z,35.52
2022-12-11T16:07:36.330Z,35.62
2022-12-11T16:10:02.966Z,35.74
2022-12-11T16:12:29.662Z,35.46
2022-12-11T16:14:56.586Z,35.41
2022-12-11T16:17:23.261Z,35.84
2022-12-11T16:19:50.144Z,35.73
2022-12-11T16:22:17.008Z,35.73
2022-12-11T16:24:43.786Z,35.67
2022-12-11T16:27:10.779Z,35.53
2022-12-11T16:29:42.925Z,35.66
2022-12-11T16:32:10.275Z,35.53
2022-12-11T16:34:37.797Z,35.52
2022-12-11T16:37:05.201Z,35.09
2022-12-11T16:39:31.979Z,35.06
2022-12-11T16:41:58.745Z,35.15
2022-12-11T16:44:26.198Z,35.00
2022-12-11T16:46:54.375Z,34.94
2022-12-11T16:49:21.695Z,35.34
2022-12-11T16:51:49.704Z,35.23
2022-12-11T16:54:16.759Z,34.89
2022-12-11T16:56:43.422Z,34.83
2022-12-11T16:59:10.073Z,34.74
2022-12-11T17:01:36.971Z,34.71
2022-12-11T17:04:03.746Z,34.64
2022-12-11T17:06:30.364Z,34.72
2022-12-11T17:08:57.229Z,34.78
2022-12-11T17:11:25.394Z,34.41
2022-12-11T17:13:58.685Z,34.44
2022-12-11T17:16:26.721Z,34.73
2022-12-11T17:18:53.470Z,34.48
2022-12-11T17:21:21.213Z,34.61
2022-12-11T17:23:48.368Z,34.68
2022-12-11T17:26:15.454Z,34.58
2022-12-11T17:28:42.247Z,34.31
2022-12-11T17:31:12.196Z,34.63
2022-12-11T17:33:39.385Z,34.33
2022-12-11T17:36:06.769Z,34.46
2022-12-11T17:38:33.701Z,34.44
2022-12-11T17:41:00.516Z,34.30
2022-12-11T17:43:27.546Z,34.51
2022-12-11T17:45:55.348Z,34.56
2022-12-11T17:48:24.939Z,34.44
2022-12-11T17:50:52.612Z,34.32
2022-12-11T17:53:20.288Z,34.21
2022-12-11T17:55:47.611Z,34.39
2022-12-11T17:58:15.979Z,34.66
2022-12-11T18:00:44.812Z,34.28
2022-12-11T18:03:12.034Z,34.28
2022-12-11T18:05:42.534Z,34.64
2022-12-11T18:08:11.902Z,34.48
2022-12-11T18:10:38.621Z,34.46
2022-12-11T18:13:05.374Z,34.41
2022-12-11T18:15:32.841Z,34.80
2022-12-11T18:17:59.968Z,34.82
2022-12-11T18:20:26.744Z,34.61
2022-12-11T18:22:53.755Z,34.82
2022-12-11T18:25:20.449Z,34.65
2022-12-11T18:27:47.139Z,35.18
2022-12-11T18:30:14.468Z,35.17
2022-12-11T18:32:41.911Z,34.75
2022-12-11T18:35:08.863Z,35.22
2022-12-11T18:37:36.076Z,35.04
2022-12-11T18:40:03.064Z,35.28
2022-12-11T18:42:33.768Z,35.46
2022-12-11T18:45:00.958Z,35.06
2022-12-11T18:47:27.760Z,35.27
2022-12-11T18:49:54.418Z,35.27
2022-12-11T18:52:21.063Z,35.43
2022-12-11T18:54:47.872Z,35.22
2022-12-11T18:57:14.619Z,35.48
2022-12-11T18:59:50.202Z,35.19
2022-12-11T19:02:16.920Z,35.58
2022-12-11T19:04:43.613Z,35.31
2022-12-11T19:07:10.280Z,35.15
2022-12-11T19:09:47.841Z,35.49
2022-12-11T19:12:15.126Z,35.41
2022-12-11T19:14:41.772Z,35.36
2022-12-11T19:17:08.406Z,35.13
2022-12-11T19:19:44.474Z,35.49
2022-12-11T19:22:11.141Z,35.29
2022-12-11T19:24:37.845Z,35.03
2022-12-11T19:27:08.565Z,35.05
2022-12-11T19:29:38.618Z,35.20
2022-12-11T19:32:05.445Z,34.87
2022-12-11T19:34:32.252Z,34.73
2022-12-11T19:36:58.987Z,34.71
2022-12-11T19:39:25.601Z,35.11
2022-12-11T19:41:52.253Z,35.06
2022-12-11T19:44:18.918Z,34.70
2022-12-11T19:46:45.677Z,34.97
2022-12-11T19:49:12.436Z,34.92
2022-12-11T19:51:40.595Z,35.18
2022-12-11T19:54:08.297Z,35.10
2022-12-11T19:56:35.602Z,35.16
2022-12-11T19:59:03.590Z,35.33
2022-12-11T20:01:31.304Z,35.23
2022-12-11T20:03:59.764Z,34.94
2022-12-11T20:06:30.172Z,34.98
2022-12-11T20:08:57.194Z,35.08
2022-12-11T20:11:23.996Z,35.25
2022-12-11T20:13:51.471Z,34.96
2022-12-11T20:16:28.868Z,35.20
2022-12-11T20:19:05.984Z,34.88
2022-12-11T20:21:32.700Z,34.99
2022-12-11T20:23:59.797Z,35.15
2022-12-11T20:26:26.686Z,35.14
2022-12-11T20:28:53.650Z,35.28
2022-12-11T20:31:21.880Z,35.20
2022-12-11T20:33:49.940Z,34.80
2022-12-11T20:36:17.256Z,34.74
2022-12-11T20:38:44.147Z,34.77
2022-12-11T20:41:12.100Z,34.77
2022-12-11T20:43:39.178Z,35.13
2022-12-11T20:46:09.981Z,34.82
2022-12-11T20:48:36.917Z,34.76
2022-12-11T20:51:04.504Z,35.10
2022-12-11T20:53:31.226Z,35.04
2022-12-11T20:56:38.980Z,34.59
2022-12-11T20:59:14.461Z,34.86
2022-12-11T21:01:47.360Z,34.69
2022-12-11T21:04:14.077Z,34.78
2022-12-11T21:06:42.192Z,34.47
2022-12-11T21:09:12.540Z,34.69
2022-12-11T21:11:39.730Z,34.52
2022-12-11T21:14:06.418Z,34.65
2022-12-11T21:16:34.786Z,34.84
2022-12-11T21:19:01.780Z,34.72
2022-12-11T21:21:28.518Z,34.99
2022-12-11T21:23:55.156Z,34.62
2022-12-11T21:26:21.902Z,34.81
2022-12-11T21:28:48.593Z,34.46
2022-12-11T21:31:16.351Z,34.69
2022-12-11T21:33:43.206Z,34.78
2022-12-11T21:36:11.356Z,34.68
2022-12-11T21:38:38.497Z,34.72
2022-12-11T21:41:13.816Z,34.51
2022-12-11T21:44:14.254Z,34.40
2022-12-11T21:46:28.179Z,34.42
2022-12-11T21:48:55.020Z,34.34
2022-12-11T21:51:23.679Z,34.26
2022-12-11T21:53:50.386Z,34.26
2022-12-11T21:56:18.335Z,34.23
2022-12-11T21:58:45.327Z,34.31
2022-12-11T22:01:31.610Z,34.21
2022-12-11T22:03:58.655Z,34.27
2022-12-11T22:06:25.280Z,34.31
2022-12-11T22:08:52.067Z,34.40
2022-12-11T22:11:19.695Z,34.55
2022-12-11T22:13:46.558Z,34.54
2022-12-11T22:16:13.343Z,34.33
2022-12-11T22:18:40.115Z,34.02
2022-12-11T22:21:10.962Z,34.33
2022-12-11T22:23:38.623Z,34.34
2022-12-11T22:26:06.052Z,34.00
2022-12-11T22:28:32.680Z,34.13
2022-12-11T22:30:59.683Z,34.00
2022-12-11T22:33:26.329Z,33.99
2022-12-11T22:35:57.345Z,34.14
2022-12-11T22:38:24.181Z,34.18
2022-12-11T22:40:50.891Z,33.88
2022-12-11T22:43:17.644Z,34.18
2022-12-11T22:45:44.366Z,34.05
2022-12-11T22:48:11.201Z,33.72
2022-12-11T22:50:38.624Z,31.40
2022-12-11T22:53:05.829Z,32.50
2022-12-11T22:55:32.542Z,33.22
2022-12-11T22:57:59.192Z,33.71
2022-12-11T23:00:26.248Z,33.58
2022-12-11T23:02:53.032Z,34.25
2022-12-11T23:05:19.831Z,34.23
2022-12-11T23:07:46.737Z,34.05
2022-12-11T23:10:13.651Z,34.09
2022-12-11T23:12:40.418Z,34.26
2022-12-11T23:15:08.678Z,34.40
2022-12-11T23:17:35.280Z,34.16
2022-12-11T23:20:04.045Z,34.24
2022-12-11T23:22:30.812Z,34.77
2022-12-11T23:24:57.548Z,34.99
2022-12-11T23:27:24.183Z,35.03
2022-12-11T23:29:50.883Z,35.22
2022-12-11T23:32:17.549Z,35.23
2022-12-11T23:34:44.170Z,35.16
2022-12-11T23:37:10.912Z,34.97
2022-12-11T23:39:45.467Z,35.25
2022-12-11T23:42:12.089Z,35.30
2022-12-11T23:44:38.750Z,35.46
2022-12-11T23:47:05.417Z,35.74
2022-12-11T23:49:32.164Z,35.82
2022-12-11T23:51:58.891Z,35.88
2022-12-11T23:54:25.504Z,35.83
2022-12-11T23:57:16.605Z,35.76
2022-12-11T23:59:55.064Z,35.77
